Time;durP1;ratioP1;P1;durP2;ratioP2;P2;SDS_P1;SDS_P2;PMS_P1;PMS_P2;Temp;Humidity;BMP_temperature;BMP_pressure;BME280_temperature;BME280_humidity;BME280_pressure;Samples;Min_cycle;Max_cycle;Signal;HPM_P1;HPM_P2
2022/07/31 14:23:40;;;;;;;;;;;23.60;66.80;;;23.08;61.85;95749.50;4274293;33;20105;-81
2022/07/31 14:26:19;;;;;;;;;;;23.60;67.10;;;23.07;62.59;95742.31;4245180;33;19909;-81
2022/07/31 14:28:49;;;;;;;;;;;23.70;67.10;;;23.08;62.14;95746.72;4244733;33;19910;-81
2022/07/31 14:31:18;;;;;;;;;;;23.70;67.10;;;23.08;61.65;95749.50;4221067;33;19909;-81
2022/07/31 14:33:46;;;;;;;;;;;23.70;67.10;;;23.10;61.83;95752.75;4244383;33;20349;-81
2022/07/31 14:36:15;;;;;;;;;;;23.70;67.10;;;23.09;61.62;95754.75;4244989;33;20117;-81
2022/07/31 14:38:45;;;;;;;;;;;23.70;67.00;;;23.09;61.72;95757.53;4221411;33;20183;-81
2022/07/31 14:41:13;;;;;;;;;;;23.70;66.90;;;23.10;61.71;95747.16;4244555;33;19918;-81
2022/07/31 14:43:42;;;;;;;;;;;23.70;66.90;;;23.10;61.89;95752.75;4244032;33;20004;-81
2022/07/31 14:46:10;;;;;;;;;;;23.70;66.80;;;23.08;61.50;95743.91;4221219;33;19902;-81
2022/07/31 14:48:39;;;;;;;;;;;23.70;66.80;;;23.06;61.86;95746.25;4221237;33;20132;-81
2022/07/31 14:51:08;;;;;;;;;;;23.70;66.90;;;23.05;62.04;95744.63;4221186;33;19902;-81
2022/07/31 14:53:36;;;;;;;;;;;23.60;67.00;;;23.05;61.81;95744.63;4244055;33;20022;-81
2022/07/31 14:56:06;;;;;;;;;;;23.60;66.80;;;23.04;61.50;95749.44;4244594;33;19925;-81
2022/07/31 14:58:35;;;;;;;;;;;23.60;66.80;;;23.06;61.64;95740.69;4221267;33;19902;-81
2022/07/31 15:01:03;;;;;;;;;;;23.60;67.00;;;23.05;61.97;95742.69;4221126;33;20251;-81
2022/07/31 15:03:32;;;;;;;;;;;23.60;66.90;;;23.07;61.52;95745.09;4243862;33;20094;-81
2022/07/31 15:06:01;;;;;;;;;;;23.60;66.90;;;23.07;61.76;95743.13;4244440;33;19907;-81
2022/07/31 15:08:29;;;;;;;;;;;23.60;66.90;;;23.08;61.81;95732.75;4244320;33;20209;-81
2022/07/31 15:10:58;;;;;;;;;;;23.70;66.90;;;23.07;61.86;95734.75;4244487;33;20240;-81
2022/07/31 15:13:28;;;;;;;;;;;23.70;66.90;;;23.07;61.58;95739.50;4244815;33;19902;-81
2022/07/31 15:15:56;;;;;;;;;;;23.60;66.80;;;23.08;61.79;95738.34;4244439;33;19902;-81
2022/07/31 15:18:25;;;;;;;;;;;23.60;66.90;;;23.08;61.39;95735.53;4220804;33;20217;-81
2022/07/31 15:20:53;;;;;;;;;;;23.60;66.60;;;23.07;61.60;95725.56;4220786;33;19991;-81
2022/07/31 15:23:22;;;;;;;;;;;23.70;66.80;;;23.08;61.32;95716.00;4215526;33;20197;-81
2022/07/31 15:25:51;;;;;;;;;;;23.70;66.80;;;23.08;61.32;95718.78;4234933;33;19902;-81
2022/07/31 15:28:19;;;;;;;;;;;23.60;66.70;;;23.07;61.44;95720.78;4234797;33;19902;-81
2022/07/31 15:30:49;;;;;;;;;;;23.70;66.60;;;23.07;61.47;95720.78;4211354;33;19902;-80
2022/07/31 15:33:18;;;;;;;;;;;23.60;66.70;;;23.07;60.89;95731.13;4210557;33;19909;-81
2022/07/31 15:35:47;;;;;;;;;;;23.70;66.70;;;23.06;61.58;95724.75;4234760;33;20102;-81
2022/07/31 15:38:15;;;;;;;;;;;23.60;66.70;;;23.07;61.59;95725.56;4211060;33;19902;-81
2022/07/31 15:40:45;;;;;;;;;;;23.60;66.60;;;23.07;61.79;95725.56;4234687;33;19902;-81
2022/07/31 15:43:14;;;;;;;;;;;23.60;66.70;;;23.05;61.43;95727.88;4233947;33;20099;-80
2022/07/31 15:45:46;;;;;;;;;;;23.60;66.70;;;23.05;61.76;95733.47;4211184;33;19911;-80
2022/07/31 15:48:16;;;;;;;;;;;23.60;66.80;;;23.05;61.73;95739.06;4234586;33;20022;-80
2022/07/31 15:50:44;;;;;;;;;;;23.60;66.80;;;23.04;61.39;95737.47;4211381;33;20318;-80
2022/07/31 15:53:13;;;;;;;;;;;23.60;66.70;;;23.03;61.75;95744.22;4233949;33;20102;-80
2022/07/31 15:55:42;;;;;;;;;;;23.60;66.70;;;23.03;61.79;95747.00;4234446;33;19925;-80
2022/07/31 15:58:10;;;;;;;;;;;23.60;66.60;;;23.02;61.27;95740.59;4234551;33;19902;-80
2022/07/31 16:00:39;;;;;;;;;;;23.60;66.40;;;23.03;61.30;95749.81;4234511;33;19902;-80
2022/07/31 16:03:07;;;;;;;;;;;23.60;66.60;;;23.02;61.58;95754.56;4233922;33;19902;-80
2022/07/31 16:05:37;;;;;;;;;;;23.60;66.60;;;23.02;61.78;95737.00;4234340;33;20116;-80
2022/07/31 16:08:07;;;;;;;;;;;23.60;66.70;;;23.01;61.14;95747.34;4234491;33;19910;-80
2022/07/31 16:10:35;;;;;;;;;;;23.60;66.60;;;23.02;61.54;95742.59;4235198;33;19902;-80
2022/07/31 16:13:04;;;;;;;;;;;23.60;66.50;;;23.01;61.72;95740.97;4210239;33;19967;-80
2022/07/31 16:15:33;;;;;;;;;;;23.60;66.50;;;23.00;61.10;95748.53;4210742;33;20332;-81
2022/07/31 16:18:02;;;;;;;;;;;23.60;66.50;;;22.99;61.43;95753.31;4234310;33;20301;-81
2022/07/31 16:20:30;;;;;;;;;;;23.60;66.50;;;22.99;61.13;95747.72;4234089;33;20213;-81
2022/07/31 16:23:00;;;;;;;;;;;23.60;66.40;;;22.99;61.42;95752.50;4205502;33;20168;-81
2022/07/31 16:25:30;;;;;;;;;;;23.60;66.50;;;22.98;60.95;95768.44;4182847;33;19956;-81
2022/07/31 16:27:58;;;;;;;;;;;23.60;66.00;;;22.98;61.31;95760.06;4206900;33;20351;-81
2022/07/31 16:30:27;;;;;;;;;;;23.60;66.50;;;22.97;61.67;95750.06;4182617;33;20115;-81
2022/07/31 16:32:56;;;;;;;;;;;23.50;66.50;;;22.96;60.87;95754.03;4205322;33;19966;-81
2022/07/31 16:35:26;;;;;;;;;;;23.60;66.50;;;22.96;61.00;95751.25;4205131;33;19903;-81
2022/07/31 16:37:54;;;;;;;;;;;23.50;66.20;;;22.94;61.29;95748.00;4205761;33;20034;-81
2022/07/31 16:40:25;;;;;;;;;;;23.50;66.40;;;22.95;61.29;95754.41;4205816;33;19994;-81
2022/07/31 16:42:54;;;;;;;;;;;23.50;66.30;;;22.94;61.58;95750.00;4205329;33;20393;-81
2022/07/31 16:45:23;;;;;;;;;;;23.50;66.60;;;22.93;61.46;95753.94;4205675;33;19903;-80
2022/07/31 16:47:51;;;;;;;;;;;23.50;66.70;;;22.91;61.58;95751.53;4182501;33;20114;-80
2022/07/31 16:50:20;;;;;;;;;;;23.50;66.50;;;22.91;61.29;95754.31;4182468;33;20156;-81
2022/07/31 16:52:49;;;;;;;;;;;23.50;66.50;;;22.89;61.32;95748.28;4205153;33;19911;-81
2022/07/31 16:55:17;;;;;;;;;;;23.50;66.50;;;22.88;61.33;95749.47;4182806;33;19974;-81
2022/07/31 16:57:47;;;;;;;;;;;23.50;66.60;;;22.86;61.36;95757.38;4182635;33;19910;-81
2022/07/31 17:00:17;;;;;;;;;;;23.50;66.20;;;22.87;61.27;95756.22;4182263;33;19903;-81
2022/07/31 17:02:45;;;;;;;;;;;23.40;66.20;;;22.85;60.88;95761.34;4222948;33;19902;-81
2022/07/31 17:05:14;;;;;;;;;;;23.40;66.30;;;22.86;61.23;95759.34;4210060;33;19909;-81
2022/07/31 17:07:43;;;;;;;;;;;23.40;66.10;;;22.83;61.07;95761.72;4210235;33;20128;-80
2022/07/31 17:10:12;;;;;;;;;;;23.40;66.10;;;22.83;61.21;95763.69;4234454;33;20083;-80
2022/07/31 17:12:40;;;;;;;;;;;23.40;66.10;;;22.83;61.02;95772.06;4209636;33;19902;-81
2022/07/31 17:15:11;;;;;;;;;;;23.40;66.40;;;22.81;61.08;95775.22;4233356;33;19917;-80
2022/07/31 17:17:40;;;;;;;;;;;23.40;66.40;;;22.81;60.91;95777.19;4210198;33;19943;-81
2022/07/31 17:20:11;;;;;;;;;;;23.40;66.30;;;22.81;60.96;95782.75;4210057;33;20145;-81
2022/07/31 17:22:39;;;;;;;;;;;23.40;66.40;;;22.80;61.35;95789.50;4232875;33;19909;-80
2022/07/31 17:25:09;;;;;;;;;;;23.40;66.30;;;22.79;61.38;95791.50;4233522;33;19987;-81
2022/07/31 17:27:38;;;;;;;;;;;23.40;66.40;;;22.79;61.03;95810.22;4233654;33;20228;-81
2022/07/31 17:30:08;;;;;;;;;;;23.40;66.50;;;22.79;60.97;95810.22;4234243;33;19903;-81
2022/07/31 17:32:38;;;;;;;;;;;23.40;66.40;;;22.77;61.32;95810.59;4233889;33;19902;-81
2022/07/31 17:35:08;;;;;;;;;;;23.40;66.40;;;22.78;61.14;95814.19;4233313;33;19902;-81
2022/07/31 17:37:38;;;;;;;;;;;23.40;66.40;;;22.77;60.96;95820.94;4233312;33;20267;-81
2022/07/31 17:40:09;;;;;;;;;;;23.40;66.40;;;22.77;61.38;95823.75;4209939;33;20221;-81
2022/07/31 17:42:37;;;;;;;;;;;23.30;66.50;;;22.77;61.42;95832.13;4232827;33;19909;-81
2022/07/31 17:45:07;;;;;;;;;;;23.30;66.50;;;22.76;61.36;95830.50;4233128;33;19925;-81
2022/07/31 17:47:36;;;;;;;;;;;23.30;66.40;;;22.74;61.08;95839.19;4209854;33;19925;-81
2022/07/31 17:50:07;;;;;;;;;;;23.30;66.50;;;22.75;61.68;95840.03;4233219;33;19985;-80
2022/07/31 17:52:36;;;;;;;;;;;23.30;66.60;;;22.74;61.19;95844.00;4233883;33;20027;-81
2022/07/31 17:55:05;;;;;;;;;;;23.30;66.70;;;22.74;61.31;95855.16;4233207;33;19903;-81
2022/07/31 17:57:34;;;;;;;;;;;23.30;66.50;;;22.74;61.16;95852.34;4233291;33;19903;-81
2022/07/31 18:00:04;;;;;;;;;;;23.30;66.50;;;22.74;61.10;95860.72;4233136;33;19909;-81
2022/07/31 18:02:33;;;;;;;;;;;23.30;66.70;;;22.72;61.22;95851.91;4232576;33;20176;-80
2022/07/31 18:05:01;;;;;;;;;;;23.30;66.60;;;22.72;61.60;95854.69;4233890;33;20117;-81
2022/07/31 18:07:31;;;;;;;;;;;23.30;66.60;;;22.72;61.34;95855.50;4209667;33;19981;-80
2022/07/31 18:10:00;;;;;;;;;;;23.30;66.70;;;22.71;61.33;95864.22;4234038;33;19903;-81
2022/07/31 18:12:29;;;;;;;;;;;23.30;66.70;;;22.71;61.33;95864.22;4233382;33;20375;-81
2022/07/31 18:14:57;;;;;;;;;;;23.30;66.70;;;22.71;61.61;95864.22;4209438;33;19909;-81
2022/07/31 18:17:29;;;;;;;;;;;23.30;66.60;;;22.70;61.68;95870.97;4209469;33;19903;-81
2022/07/31 18:19:57;;;;;;;;;;;23.30;66.70;;;22.70;61.22;95862.59;4209455;33;19925;-81
2022/07/31 18:22:28;;;;;;;;;;;23.30;66.80;;;22.70;61.30;95873.75;4233135;33;20164;-81
2022/07/31 18:24:58;;;;;;;;;;;23.30;66.70;;;22.70;61.14;95887.72;4233694;33;19910;-81
2022/07/31 18:27:26;;;;;;;;;;;23.30;66.50;;;22.68;61.46;95888.88;4209349;33;19909;-80
2022/07/31 18:29:55;;;;;;;;;;;23.30;66.40;;;22.69;61.37;95884.13;4209403;33;20213;-81
2022/07/31 18:32:23;;;;;;;;;;;23.20;66.40;;;22.67;61.25;95890.06;4208853;33;20060;-81
2022/07/31 18:34:52;;;;;;;;;;;23.30;66.40;;;22.68;61.27;95886.09;4232933;33;20117;-81
2022/07/31 18:37:21;;;;;;;;;;;23.30;66.40;;;22.67;61.07;95889.25;4233654;33;20220;-80
2022/07/31 18:39:49;;;;;;;;;;;23.30;66.20;;;22.68;60.84;95897.25;4232849;33;20178;-80
2022/07/31 18:42:19;;;;;;;;;;;23.30;66.30;;;22.68;60.78;95893.66;4233156;33;19917;-80
2022/07/31 18:44:48;;;;;;;;;;;23.30;66.10;;;22.67;60.88;95898.41;4232635;33;19910;-80
2022/07/31 18:47:16;;;;;;;;;;;23.30;66.10;;;22.67;60.77;95900.41;4209294;33;19902;-80
2022/07/31 18:49:45;;;;;;;;;;;23.20;66.10;;;22.66;61.20;95896.78;4233737;33;20159;-80
2022/07/31 18:52:13;;;;;;;;;;;23.20;66.10;;;22.66;61.07;95904.38;4232177;33;19909;-80
2022/07/31 18:54:42;;;;;;;;;;;23.20;66.00;;;22.67;61.07;95909.59;4209260;33;20214;-80
2022/07/31 18:57:11;;;;;;;;;;;23.20;66.10;;;22.65;61.08;95906.38;4232694;33;20097;-80
2022/07/31 18:59:46;;;;;;;;;;;23.20;66.10;;;22.66;60.88;95902.38;4234681;33;19902;-80
2022/07/31 19:02:14;;;;;;;;;;;23.20;66.00;;;22.65;61.15;95906.38;4211110;33;19902;-81
2022/07/31 19:04:53;;;;;;;;;;;23.20;66.10;;;22.65;60.96;95911.94;4211447;33;19902;-81
2022/07/31 19:07:22;;;;;;;;;;;23.20;66.20;;;22.65;61.31;95911.13;4211558;33;19902;-82
2022/07/31 19:09:53;;;;;;;;;;;23.20;66.30;;;22.64;60.97;95915.91;4236204;33;19909;-81
2022/07/31 19:12:55;;;;;;;;;;;23.20;66.30;;;22.63;61.06;95919.03;4234497;33;19922;-81
2022/07/31 19:15:44;;;;;;;;;;;23.20;66.20;;;22.64;61.37;95921.47;4236879;33;19902;-81
2022/07/31 19:18:12;;;;;;;;;;;23.20;66.20;;;22.64;61.01;95931.81;4235401;33;19902;-81
2022/07/31 19:20:43;;;;;;;;;;;23.20;66.20;;;22.62;60.85;95923.81;4211786;33;20225;-81
2022/07/31 19:23:12;;;;;;;;;;;23.20;66.20;;;22.63;61.29;95924.59;4234652;33;20361;-82
2022/07/31 19:25:42;;;;;;;;;;;23.20;66.30;;;22.63;61.01;95930.19;4211464;33;19909;-82
2022/07/31 19:28:10;;;;;;;;;;;23.20;66.20;;;22.63;61.36;95922.66;4236017;33;20201;-82
2022/07/31 19:30:39;;;;;;;;;;;23.20;66.20;;;22.62;61.06;95920.19;4236073;33;20082;-81
2022/07/31 19:33:09;;;;;;;;;;;23.20;66.20;;;22.61;60.94;95919.41;4210971;33;19902;-81
2022/07/31 19:35:38;;;;;;;;;;;23.20;66.20;;;22.61;61.18;95916.59;4235068;33;20106;-81
2022/07/31 19:38:07;;;;;;;;;;;23.20;66.10;;;22.60;61.14;95920.56;4234963;33;20208;-81
2022/07/31 19:40:35;;;;;;;;;;;23.20;66.10;;;22.61;61.11;95921.34;4234968;33;19903;-81
2022/07/31 19:43:04;;;;;;;;;;;23.20;66.10;;;22.60;61.23;95920.56;4210861;33;19902;-81
2022/07/31 19:45:32;;;;;;;;;;;23.20;66.10;;;22.59;61.12;95913.34;4211355;33;20011;-82
2022/07/31 19:48:01;;;;;;;;;;;23.20;66.10;;;22.59;61.13;95913.34;4234808;33;19902;-81
2022/07/31 19:50:31;;;;;;;;;;;23.20;66.10;;;22.59;61.04;95913.34;4234890;33;19902;-81
2022/07/31 19:52:59;;;;;;;;;;;23.20;66.00;;;22.58;60.88;95911.72;4235129;33;20357;-82
2022/07/31 19:55:28;;;;;;;;;;;23.20;67.00;;;22.58;61.15;95913.72;4234752;33;20128;-82
2022/07/31 19:57:56;;;;;;;;;;;23.20;66.20;;;22.58;61.16;95908.16;4235834;33;20460;-82
2022/07/31 20:00:25;;;;;;;;;;;23.20;66.10;;;22.57;60.91;95912.91;4234941;33;19985;-82
2022/07/31 20:02:54;;;;;;;;;;;23.20;66.20;;;22.57;60.90;95910.09;4234164;33;19909;-82
2022/07/31 20:05:23;;;;;;;;;;;23.10;66.20;;;22.57;60.98;95912.09;4234620;33;19992;-81
2022/07/31 20:07:53;;;;;;;;;;;23.10;66.20;;;22.57;60.99;95912.09;4234704;33;20316;-82
2022/07/31 20:10:21;;;;;;;;;;;23.10;66.20;;;22.56;61.30;95914.06;4234733;33;20125;-82
2022/07/31 20:12:50;;;;;;;;;;;23.10;66.20;;;22.56;60.99;95911.28;4234008;33;19909;-81
2022/07/31 20:15:19;;;;;;;;;;;23.10;66.30;;;22.55;61.30;95906.06;4211200;33;20066;-81
2022/07/31 20:17:48;;;;;;;;;;;23.10;66.30;;;22.55;61.51;95912.44;4235304;33;20006;-81
2022/07/31 20:20:16;;;;;;;;;;;23.10;66.30;;;22.55;61.37;95906.06;4234811;33;20074;-81
2022/07/31 20:22:45;;;;;;;;;;;23.10;66.40;;;22.54;61.03;95905.22;4234996;33;19910;-81
2022/07/31 20:25:15;;;;;;;;;;;23.10;66.50;;;22.54;61.29;95916.38;4235485;33;19902;-82
2022/07/31 20:27:44;;;;;;;;;;;23.10;66.40;;;22.53;60.97;95912.81;4211077;33;19985;-81
2022/07/31 20:30:13;;;;;;;;;;;23.10;66.40;;;22.54;61.10;95916.38;4210856;33;20150;-81
2022/07/31 20:32:41;;;;;;;;;;;23.10;66.40;;;22.53;61.07;95903.59;4210252;33;19909;-81
2022/07/31 20:35:10;;;;;;;;;;;23.10;66.50;;;22.52;61.44;95908.38;4234056;33;19925;-81
2022/07/31 20:37:39;;;;;;;;;;;23.10;66.50;;;22.53;61.37;95914.75;4235234;33;20160;-81
2022/07/31 20:40:09;;;;;;;;;;;23.10;66.60;;;22.52;61.24;95908.38;4210720;33;19902;-81
2022/07/31 20:42:39;;;;;;;;;;;23.10;66.50;;;22.52;61.20;95913.16;4233697;33;19917;-81
2022/07/31 20:45:11;;;;;;;;;;;23.10;66.60;;;22.52;61.21;95904.81;4257624;33;20137;-81
2022/07/31 20:47:39;;;;;;;;;;;23.10;66.70;;;22.52;61.16;95904.81;4234139;33;19909;-81
2022/07/31 20:50:09;;;;;;;;;;;23.10;66.40;;;22.51;61.08;95906.75;4210567;33;20077;-81
2022/07/31 20:52:38;;;;;;;;;;;23.10;66.50;;;22.51;61.39;95912.34;4233547;33;19902;-81
2022/07/31 20:55:07;;;;;;;;;;;23.10;66.50;;;22.51;61.38;95911.53;4233921;33;20345;-81
2022/07/31 20:57:38;;;;;;;;;;;23.10;66.50;;;22.51;61.49;95911.53;4233899;33;20014;-81
2022/07/31 21:00:09;;;;;;;;;;;23.10;66.50;;;22.50;61.29;95909.91;4233834;33;19910;-81
2022/07/31 21:02:37;;;;;;;;;;;23.10;66.60;;;22.49;61.37;95911.88;4233343;33;19925;-81
2022/07/31 21:05:07;;;;;;;;;;;23.10;66.50;;;22.49;61.40;95902.72;4210135;33;20143;-81
2022/07/31 21:07:36;;;;;;;;;;;23.10;66.50;;;22.49;61.27;95905.50;4210360;33;19906;-81
2022/07/31 21:10:06;;;;;;;;;;;23.10;66.60;;;22.48;61.25;95901.88;4210385;33;19902;-81
2022/07/31 21:12:35;;;;;;;;;;;23.10;66.50;;;22.48;61.39;95895.50;4233244;33;20023;-81
2022/07/31 21:15:07;;;;;;;;;;;23.10;66.60;;;22.48;61.27;95903.88;4234665;33;20028;-81
2022/07/31 21:17:35;;;;;;;;;;;23.10;66.70;;;22.47;61.10;95899.47;4210183;33;19909;-80
2022/07/31 21:20:07;;;;;;;;;;;23.10;66.60;;;22.48;61.48;95906.66;4234521;33;19909;-81
2022/07/31 21:22:35;;;;;;;;;;;23.10;66.60;;;22.47;61.29;95899.47;4209201;33;20329;-81
2022/07/31 21:25:05;;;;;;;;;;;23.10;66.70;;;22.47;61.59;95905.03;4210169;33;20137;-81
2022/07/31 21:27:33;;;;;;;;;;;23.10;66.70;;;22.47;61.65;95899.47;4210158;33;19902;-81
2022/07/31 21:30:04;;;;;;;;;;;23.00;66.60;;;22.46;61.20;95889.47;4257315;33;19953;-81
2022/07/31 21:32:34;;;;;;;;;;;23.00;66.60;;;22.45;61.33;95904.59;4233041;33;20079;-81
2022/07/31 21:35:03;;;;;;;;;;;23.00;66.60;;;22.45;61.34;95899.00;4210056;33;19910;-81
2022/07/31 21:37:31;;;;;;;;;;;23.00;66.60;;;22.45;61.37;95902.63;4234446;33;20064;-81
2022/07/31 21:40:00;;;;;;;;;;;23.00;66.70;;;22.46;61.37;95900.63;4233479;33;20067;-80
2022/07/31 21:42:30;;;;;;;;;;;23.00;66.70;;;22.45;61.91;95904.59;4232963;33;20079;-81
2022/07/31 21:44:59;;;;;;;;;;;23.00;66.60;;;22.44;61.44;95901.00;4209851;33;19960;-81
2022/07/31 21:47:29;;;;;;;;;;;23.00;66.70;;;22.44;61.34;95906.56;4209870;33;20129;-81
2022/07/31 21:49:58;;;;;;;;;;;23.00;66.70;;;22.44;61.24;95905.75;4233395;33;20194;-80
2022/07/31 21:52:28;;;;;;;;;;;23.00;66.70;;;22.44;61.51;95906.56;4232837;33;19910;-81
2022/07/31 21:54:57;;;;;;;;;;;23.00;66.60;;;22.44;61.59;95905.75;4209829;33;20079;-81
2022/07/31 21:57:25;;;;;;;;;;;23.00;66.60;;;22.43;61.78;95904.94;4209954;33;19902;-81
2022/07/31 21:59:54;;;;;;;;;;;23.00;66.60;;;22.43;61.47;95904.13;4209764;33;19902;-80
2022/07/31 22:02:22;;;;;;;;;;;23.00;66.60;;;22.43;61.41;95906.91;4256677;33;19907;-80
2022/07/31 22:07:42;;;;;;;;;;;23.00;66.60;;;22.42;61.41;95899.72;4203051;33;19902;-80
2022/07/31 22:10:11;;;;;;;;;;;23.00;66.70;;;22.42;61.49;95903.31;4233268;33;19903;-80
2022/07/31 22:12:40;;;;;;;;;;;23.00;66.70;;;22.42;61.45;95896.91;4209218;33;19909;-80
2022/07/31 22:15:10;;;;;;;;;;;23.00;66.70;;;22.41;61.65;95900.84;4256837;33;20144;-80
2022/07/31 22:17:39;;;;;;;;;;;23.00;66.70;;;22.41;61.65;95900.84;4209706;33;19902;-80
2022/07/31 22:20:11;;;;;;;;;;;23.00;66.70;;;22.40;61.27;95897.25;4233972;33;19987;-80
2022/07/31 22:22:40;;;;;;;;;;;23.00;66.60;;;22.40;61.70;95894.47;4209064;33;20269;-80
2022/07/31 22:25:11;;;;;;;;;;;23.00;66.80;;;22.39;61.78;95890.06;4233065;33;20236;-80
2022/07/31 22:27:54;;;;;;;;;;;23.00;66.70;;;22.38;61.51;95894.84;4209435;33;20024;-80
2022/07/31 22:30:23;;;;;;;;;;;23.00;66.70;;;22.38;62.00;95886.47;4209547;33;19902;-80
2022/07/31 22:32:52;;;;;;;;;;;23.00;66.80;;;22.40;61.67;95888.09;4209454;33;19910;-80
2022/07/31 22:35:22;;;;;;;;;;;23.00;66.70;;;22.37;61.22;95878.44;4236310;33;19902;-80
2022/07/31 22:37:51;;;;;;;;;;;23.00;66.70;;;22.38;61.46;95885.63;4212028;33;19902;-80
2022/07/31 22:40:20;;;;;;;;;;;23.00;66.70;;;22.38;61.27;95896.78;4236435;33;19902;-80
2022/07/31 22:42:49;;;;;;;;;;;23.00;66.60;;;22.36;61.50;95888.78;4235050;33;20380;-80
2022/07/31 22:45:18;;;;;;;;;;;23.00;66.60;;;22.36;61.71;95888.78;4211886;33;19903;-80
2022/07/31 22:47:47;;;;;;;;;;;23.00;66.70;;;22.36;61.37;95883.22;4236222;33;19910;-80
2022/07/31 22:50:16;;;;;;;;;;;23.00;66.70;;;22.35;61.53;95887.16;4235270;33;19902;-81
2022/07/31 22:52:46;;;;;;;;;;;23.00;66.70;;;22.34;61.47;95877.19;4234859;33;20027;-80
2022/07/31 22:55:15;;;;;;;;;;;23.00;66.70;;;22.35;61.63;95886.34;4235329;33;19902;-80
2022/07/31 22:57:45;;;;;;;;;;;22.90;66.80;;;22.34;61.48;95879.97;4211757;33;20111;-81
2022/07/31 23:00:17;;;;;;;;;;;22.90;66.70;;;22.34;61.65;95879.97;4235405;33;19902;-81
2022/07/31 23:02:45;;;;;;;;;;;22.90;66.80;;;22.35;61.64;95875.19;4211385;33;19989;-81
2022/07/31 23:05:14;;;;;;;;;;;22.90;66.60;;;22.35;61.22;95880.75;4236244;33;20017;-80
2022/07/31 23:07:42;;;;;;;;;;;22.90;66.70;;;22.33;61.47;95878.34;4211853;33;20131;-81
2022/07/31 23:10:12;;;;;;;;;;;22.90;66.70;;;22.34;61.57;95879.97;4211738;33;20288;-81
2022/07/31 23:12:41;;;;;;;;;;;22.90;66.70;;;22.33;61.54;95878.34;4211226;33;19981;-81
2022/07/31 23:15:09;;;;;;;;;;;22.90;66.70;;;22.32;61.27;95871.13;4211655;33;20128;-81
2022/07/31 23:17:38;;;;;;;;;;;22.90;66.70;;;22.33;61.78;95871.97;4236210;33;20078;-81
2022/07/31 23:20:08;;;;;;;;;;;22.90;66.80;;;22.32;61.53;95879.50;4236010;33;20019;-81
2022/07/31 23:22:36;;;;;;;;;;;22.90;66.80;;;22.31;61.64;95869.50;4235596;33;19920;-80
2022/07/31 23:25:06;;;;;;;;;;;22.90;66.80;;;22.32;61.67;95868.34;4211479;33;20062;-81
2022/07/31 23:27:36;;;;;;;;;;;22.90;66.70;;;22.31;61.73;95880.66;4235061;33;20064;-81
2022/07/31 23:30:05;;;;;;;;;;;22.90;66.70;;;22.31;61.51;95880.66;4234846;33;19946;-80
2022/07/31 23:32:34;;;;;;;;;;;22.90;66.80;;;22.30;61.69;95867.88;4234593;33;19910;-81
2022/07/31 23:35:02;;;;;;;;;;;22.90;66.80;;;22.31;61.75;95877.09;4234784;33;19930;-81
2022/07/31 23:37:31;;;;;;;;;;;22.90;66.70;;;22.30;61.64;95876.25;4234955;33;19971;-80
2022/07/31 23:40:00;;;;;;;;;;;22.90;66.70;;;22.29;61.68;95877.41;4235846;33;19909;-81
2022/07/31 23:42:40;;;;;;;;;;;22.90;66.80;;;22.29;61.50;95879.41;4258035;33;20302;-81
2022/07/31 23:45:12;;;;;;;;;;;22.90;66.70;;;22.29;61.64;95877.41;4235375;33;20113;-80
2022/07/31 23:47:49;;;;;;;;;;;22.90;66.70;;;22.29;61.45;95876.63;4235689;33;19926;-80
2022/07/31 23:50:17;;;;;;;;;;;22.90;66.70;;;22.29;61.64;95883.00;4234598;33;19909;-80
2022/07/31 23:52:46;;;;;;;;;;;22.90;66.70;;;22.28;61.31;95880.56;4234249;33;20114;-80
2022/07/31 23:55:15;;;;;;;;;;;22.90;66.80;;;22.28;61.43;95886.94;4235507;33;19909;-80
2022/07/31 23:57:43;;;;;;;;;;;22.90;66.80;;;22.28;61.46;95886.16;4234885;33;19997;-80
